createdAt,value
2018-07-11T00:00:23.181Z,83.05
2018-07-11T00:02:50.411Z,83.45
2018-07-11T00:05:17.699Z,84.10
2018-07-11T00:07:44.969Z,84.99
2018-07-11T00:10:12.277Z,84.96
2018-07-11T00:12:39.503Z,84.36
2018-07-11T00:15:06.866Z,83.94
2018-07-11T00:20:24.310Z,84.44
2018-07-11T00:22:51.617Z,84.72
2018-07-11T00:25:18.908Z,84.51
2018-07-11T00:27:46.175Z,84.69
2018-07-11T00:30:13.468Z,84.95
2018-07-11T00:32:40.692Z,85.16
2018-07-11T00:35:08.006Z,84.64
2018-07-11T00:37:35.274Z,84.73
2018-07-11T00:40:02.617Z,84.75
2018-07-11T00:42:29.913Z,84.08
2018-07-11T00:44:57.226Z,84.02
2018-07-11T00:47:24.515Z,84.52
2018-07-11T00:49:51.798Z,84.26
2018-07-11T00:52:19.323Z,83.85
2018-07-11T00:54:46.636Z,83.97
2018-07-11T00:57:14.102Z,83.78
2018-07-11T00:59:41.560Z,83.87
2018-07-11T01:02:08.842Z,83.74
2018-07-11T01:04:36.121Z,83.35
2018-07-11T01:07:05.184Z,83.64
2018-07-11T01:09:46.138Z,83.77
2018-07-11T01:12:13.433Z,83.66
2018-07-11T01:14:40.737Z,84.09
2018-07-11T01:17:14.547Z,84.20
2018-07-11T01:19:42.714Z,84.31
2018-07-11T01:22:10.024Z,84.60
2018-07-11T01:24:37.293Z,85.66
2018-07-11T01:27:04.922Z,85.25
2018-07-11T01:29:32.168Z,84.74
2018-07-11T01:31:59.479Z,84.81
2018-07-11T01:34:26.745Z,84.14
2018-07-11T01:36:54.274Z,83.68
2018-07-11T01:39:21.553Z,83.96
2018-07-11T01:41:48.828Z,84.04
2018-07-11T01:44:16.109Z,85.36
2018-07-11T01:46:45.978Z,84.15
2018-07-11T01:49:13.506Z,83.79
2018-07-11T01:53:47.906Z,83.69
2018-07-11T01:56:15.222Z,84.99
2018-07-11T01:58:44.494Z,84.78
2018-07-11T02:01:12.017Z,85.12
2018-07-11T02:03:39.327Z,84.92
2018-07-11T02:06:07.232Z,84.73
2018-07-11T02:08:34.735Z,84.72
2018-07-11T02:11:02.042Z,83.68
2018-07-11T02:13:31.497Z,83.76
2018-07-11T02:15:58.805Z,83.75
2018-07-11T02:18:27.768Z,83.39
2018-07-11T02:20:55.581Z,83.68
2018-07-11T02:23:23.480Z,83.54
2018-07-11T02:25:50.774Z,84.22
2018-07-11T02:28:18.542Z,83.76
2018-07-11T02:30:45.862Z,84.74
2018-07-11T02:33:13.153Z,84.43
2018-07-11T02:35:41.286Z,82.88
2018-07-11T02:38:08.599Z,82.52
2018-07-11T02:40:35.913Z,83.33
2018-07-11T02:43:03.184Z,83.46
2018-07-11T02:45:30.514Z,83.75
2018-07-11T02:47:57.797Z,83.37
2018-07-11T02:50:25.164Z,82.88
2018-07-11T02:52:52.471Z,83.26
2018-07-11T02:55:19.741Z,84.22
2018-07-11T02:57:47.100Z,84.18
2018-07-11T03:00:14.361Z,84.25
2018-07-11T03:02:41.703Z,84.41
2018-07-11T03:05:09.118Z,84.67
2018-07-11T03:07:36.506Z,84.82
2018-07-11T03:10:04.027Z,84.96
2018-07-11T03:12:31.501Z,85.74
2018-07-11T03:14:58.785Z,84.95
2018-07-11T03:17:26.452Z,85.34
2018-07-11T03:19:54.852Z,85.90
2018-07-11T03:22:23.629Z,85.44
2018-07-11T03:24:51.514Z,85.69
2018-07-11T03:27:18.894Z,85.72
2018-07-11T03:29:46.256Z,85.28
2018-07-11T03:32:13.812Z,85.54
2018-07-11T03:34:41.199Z,85.27
2018-07-11T03:37:08.650Z,85.56
2018-07-11T03:39:36.480Z,85.87
2018-07-11T03:42:04.582Z,85.25
2018-07-11T03:44:32.001Z,85.57
2018-07-11T03:46:59.373Z,85.54
2018-07-11T03:49:26.773Z,85.85
2018-07-11T03:51:54.463Z,85.56
2018-07-11T03:54:21.911Z,85.10
2018-07-11T03:56:49.317Z,84.82
2018-07-11T03:59:17.318Z,84.42
2018-07-11T04:01:44.685Z,84.21
2018-07-11T04:04:12.072Z,84.93
2018-07-11T04:06:39.507Z,85.27
2018-07-11T04:09:07.494Z,84.71
2018-07-11T04:11:35.681Z,84.75
2018-07-11T04:14:03.061Z,85.30
2018-07-11T04:16:30.461Z,83.93
2018-07-11T04:18:57.810Z,84.11
2018-07-11T04:21:25.136Z,84.58
2018-07-11T04:23:52.516Z,85.50
2018-07-11T04:26:19.934Z,85.39
2018-07-11T04:28:47.335Z,84.78
2018-07-11T04:31:14.789Z,85.38
2018-07-11T04:33:42.243Z,85.09
2018-07-11T04:36:09.699Z,84.82
2018-07-11T04:38:37.153Z,85.04
2018-07-11T04:41:05.167Z,85.04
2018-07-11T04:43:32.643Z,84.84
2018-07-11T04:46:00.097Z,84.88
2018-07-11T04:48:27.506Z,85.08
2018-07-11T04:50:54.918Z,84.77
2018-07-11T04:53:25.254Z,84.89
2018-07-11T04:55:57.336Z,84.78
2018-07-11T04:58:25.019Z,84.61
2018-07-11T05:00:52.337Z,84.58
2018-07-11T05:03:19.661Z,84.86
2018-07-11T05:05:47.030Z,85.52
2018-07-11T05:08:14.439Z,85.26
2018-07-11T05:10:41.791Z,85.06
2018-07-11T05:13:09.210Z,84.94
2018-07-11T05:15:36.623Z,84.21
2018-07-11T05:18:04.198Z,84.36
2018-07-11T05:20:31.502Z,84.90
2018-07-11T05:22:59.271Z,84.00
2018-07-11T05:25:27.258Z,84.96
2018-07-11T05:27:54.618Z,84.79
2018-07-11T05:30:21.959Z,84.46
2018-07-11T05:32:49.866Z,83.01
2018-07-11T05:35:17.214Z,83.51
2018-07-11T05:37:44.539Z,83.15
2018-07-11T05:40:12.633Z,82.32
2018-07-11T05:42:39.986Z,82.28
2018-07-11T05:45:07.482Z,82.78
2018-07-11T05:47:34.810Z,82.63
2018-07-11T05:50:02.176Z,82.36
2018-07-11T05:52:29.537Z,83.05
2018-07-11T05:54:57.084Z,82.86
2018-07-11T05:57:24.415Z,83.25
2018-07-11T05:59:51.787Z,82.81
2018-07-11T06:02:19.156Z,83.23
2018-07-11T06:04:46.536Z,83.70
2018-07-11T06:07:14.557Z,83.55
2018-07-11T06:09:41.932Z,83.82
2018-07-11T06:12:09.297Z,84.37
2018-07-11T06:14:36.717Z,84.62
2018-07-11T06:17:04.197Z,84.49
2018-07-11T06:19:31.546Z,84.54
2018-07-11T06:21:59.066Z,84.09
2018-07-11T06:24:26.429Z,84.09
2018-07-11T06:26:54.435Z,83.64
2018-07-11T06:29:22.478Z,83.36
2018-07-11T06:31:49.829Z,83.51
2018-07-11T06:34:17.227Z,84.38
2018-07-11T06:36:44.560Z,84.35
2018-07-11T06:39:12.005Z,84.11
2018-07-11T06:41:39.297Z,83.94
2018-07-11T06:44:06.678Z,84.26
2018-07-11T06:46:33.978Z,84.15
2018-07-11T06:49:02.179Z,83.66
2018-07-11T06:51:29.554Z,82.80
2018-07-11T06:53:57.796Z,82.82
2018-07-11T06:56:25.175Z,82.88
2018-07-11T06:58:52.555Z,82.44
2018-07-11T07:01:19.944Z,81.21
2018-07-11T07:03:47.871Z,81.45
2018-07-11T07:06:15.732Z,81.48
2018-07-11T07:08:43.178Z,80.02
2018-07-11T07:11:10.582Z,78.50
2018-07-11T07:13:39.546Z,77.85
2018-07-11T07:16:07.623Z,75.86
2018-07-11T07:18:35.066Z,73.32
2018-07-11T07:21:02.409Z,71.68
2018-07-11T07:23:29.762Z,70.66
2018-07-11T07:25:57.168Z,71.51
2018-07-11T07:28:24.581Z,70.87
2018-07-11T07:30:52.897Z,71.91
2018-07-11T07:33:20.299Z,71.86
2018-07-11T07:35:48.285Z,70.04
2018-07-11T07:38:15.703Z,70.86
2018-07-11T07:40:43.090Z,67.84
2018-07-11T07:43:10.520Z,64.38
2018-07-11T07:45:39.068Z,63.81
2018-07-11T07:48:06.576Z,64.41
2018-07-11T07:50:33.958Z,63.44
2018-07-11T07:53:01.333Z,62.73
2018-07-11T07:55:28.727Z,61.86
2018-07-11T07:57:56.125Z,59.52
2018-07-11T08:00:23.527Z,60.14
2018-07-11T08:02:50.888Z,60.34
2018-07-11T08:05:18.392Z,57.42
2018-07-11T08:07:45.741Z,56.29
2018-07-11T08:10:14.005Z,55.57
2018-07-11T08:12:41.479Z,54.41
2018-07-11T08:15:09.484Z,57.13
2018-07-11T08:17:37.090Z,57.60
2018-07-11T08:20:04.638Z,56.13
2018-07-11T08:23:12.271Z,54.01
2018-07-11T08:25:51.426Z,51.84
2018-07-11T08:32:36.283Z,54.11
2018-07-11T08:35:13.604Z,59.57
2018-07-11T08:37:58.410Z,60.16
2018-07-11T08:42:43.766Z,58.99
2018-07-11T08:45:36.219Z,57.52
2018-07-11T08:48:15.925Z,56.46
2018-07-11T08:51:00.396Z,55.57
2018-07-11T08:55:43.823Z,55.76
2018-07-11T08:58:23.521Z,56.75
2018-07-11T09:01:08.877Z,57.02
2018-07-11T09:06:02.783Z,58.44
2018-07-11T09:08:47.667Z,57.00
2018-07-11T09:11:43.168Z,58.64
2018-07-11T09:16:23.907Z,59.61
2018-07-11T09:21:25.214Z,59.14
2018-07-11T09:24:14.862Z,59.24
2018-07-11T09:26:42.212Z,58.80
2018-07-11T09:29:09.568Z,59.57
2018-07-11T09:31:37.620Z,59.87
2018-07-11T09:34:04.927Z,59.64
2018-07-11T09:36:32.329Z,59.13
2018-07-11T09:38:59.689Z,56.82
2018-07-11T09:41:27.117Z,58.27
2018-07-11T09:43:54.579Z,57.17
2018-07-11T09:46:21.967Z,56.74
2018-07-11T09:48:49.451Z,53.84
2018-07-11T09:51:16.853Z,50.57
2018-07-11T09:53:44.289Z,49.76
2018-07-11T09:56:11.677Z,49.86
2018-07-11T09:58:39.899Z,50.55
2018-07-11T10:01:27.849Z,50.13
2018-07-11T10:03:56.628Z,50.11
2018-07-11T10:06:25.175Z,48.17
2018-07-11T10:08:53.065Z,46.57
2018-07-11T10:11:20.582Z,47.29
2018-07-11T10:13:48.462Z,45.91
2018-07-11T10:16:16.424Z,43.24
2018-07-11T10:18:51.946Z,43.86
2018-07-11T10:21:19.289Z,40.67
2018-07-11T10:23:46.654Z,40.62
2018-07-11T10:26:14.014Z,40.67
2018-07-11T10:28:41.414Z,39.43
2018-07-11T10:31:09.985Z,38.89
2018-07-11T10:33:37.359Z,39.28
2018-07-11T10:36:05.717Z,37.58
2018-07-11T10:38:33.130Z,39.93
2018-07-11T10:41:00.454Z,40.37
2018-07-11T10:43:41.321Z,37.39
2018-07-11T10:46:08.684Z,37.51
2018-07-11T10:48:36.457Z,38.05
2018-07-11T10:51:03.999Z,40.71
2018-07-11T10:53:32.004Z,37.29
2018-07-11T10:55:59.362Z,37.02
2018-07-11T10:58:26.771Z,37.16
2018-07-11T11:01:05.695Z,37.66
2018-07-11T11:03:22.738Z,37.80
2018-07-11T11:05:50.113Z,39.25
2018-07-11T11:08:17.425Z,40.37
2018-07-11T11:10:44.811Z,40.72
2018-07-11T11:13:12.157Z,43.29
2018-07-11T11:15:39.571Z,43.87
2018-07-11T11:18:06.964Z,45.86
2018-07-11T11:20:34.445Z,46.31
2018-07-11T11:23:01.972Z,46.35
2018-07-11T11:25:29.402Z,47.08
2018-07-11T11:27:56.754Z,47.96
2018-07-11T11:30:24.144Z,48.47
2018-07-11T11:32:52.190Z,47.67
2018-07-11T11:35:19.611Z,48.03
2018-07-11T11:37:46.959Z,49.14
2018-07-11T11:40:14.469Z,50.57
2018-07-11T11:42:41.904Z,52.06
2018-07-11T11:45:09.848Z,53.02
2018-07-11T11:47:37.182Z,53.66
2018-07-11T11:50:05.731Z,54.33
2018-07-11T11:52:33.145Z,54.06
2018-07-11T11:55:00.570Z,53.98
2018-07-11T11:57:27.958Z,54.85
2018-07-11T11:59:56.216Z,54.67
2018-07-11T12:02:23.571Z,54.93
2018-07-11T12:04:51.024Z,54.66
2018-07-11T12:07:18.509Z,54.29
2018-07-11T12:09:46.718Z,54.24
2018-07-11T12:12:14.043Z,52.80
2018-07-11T12:14:41.420Z,53.64
2018-07-11T12:17:08.794Z,52.87
2018-07-11T12:19:36.199Z,52.15
2018-07-11T12:22:03.628Z,51.92
2018-07-11T12:24:31.060Z,51.76
2018-07-11T12:26:58.445Z,53.95
2018-07-11T12:29:25.835Z,55.03
2018-07-11T12:31:53.123Z,57.21
2018-07-11T12:34:20.462Z,59.31
2018-07-11T12:36:47.881Z,57.58
2018-07-11T12:39:15.642Z,56.85
2018-07-11T12:41:43.170Z,57.54
2018-07-11T12:44:10.552Z,59.03
2018-07-11T12:46:37.997Z,59.58
2018-07-11T12:49:06.305Z,61.87
2018-07-11T12:51:34.104Z,61.57
2018-07-11T12:54:01.933Z,61.88
2018-07-11T12:56:29.502Z,59.87
2018-07-11T12:58:57.815Z,58.08
2018-07-11T13:01:25.490Z,56.43
2018-07-11T13:03:55.135Z,56.05
2018-07-11T13:06:23.022Z,54.36
2018-07-11T13:08:50.430Z,52.69
2018-07-11T13:11:17.847Z,51.60
2018-07-11T13:13:48.243Z,51.43
2018-07-11T13:16:16.204Z,51.61
2018-07-11T13:18:43.461Z,50.59
2018-07-11T13:21:11.434Z,49.20
2018-07-11T13:23:38.781Z,48.64
2018-07-11T13:26:06.238Z,47.54
2018-07-11T13:28:33.562Z,47.63
2018-07-11T13:31:00.966Z,47.76
2018-07-11T13:33:28.349Z,47.56
2018-07-11T13:35:56.311Z,43.93
2018-07-11T13:38:23.620Z,43.24
2018-07-11T13:40:51.099Z,44.60
2018-07-11T13:43:18.475Z,43.39
2018-07-11T13:46:06.327Z,42.76
2018-07-11T13:48:33.719Z,43.22
2018-07-11T13:51:01.170Z,42.13
2018-07-11T13:53:28.449Z,42.09
2018-07-11T13:55:55.760Z,43.26
2018-07-11T13:58:23.016Z,42.28
2018-07-11T14:00:51.266Z,42.95
2018-07-11T14:03:19.307Z,43.31
2018-07-11T14:05:46.889Z,42.48
2018-07-11T14:08:14.269Z,41.92
2018-07-11T14:10:41.816Z,39.91
2018-07-11T14:13:09.386Z,38.64
2018-07-11T14:15:36.732Z,40.00
2018-07-11T14:18:04.252Z,38.15
2018-07-11T14:20:31.683Z,37.20
2018-07-11T14:23:06.521Z,37.28
2018-07-11T14:25:36.512Z,37.78
2018-07-11T14:28:03.980Z,37.22
2018-07-11T14:30:31.926Z,37.47
2018-07-11T14:33:03.209Z,37.69
2018-07-11T14:35:30.951Z,38.25
2018-07-11T14:37:58.320Z,40.20
2018-07-11T14:40:25.740Z,40.07
2018-07-11T14:42:53.142Z,41.85
2018-07-11T14:45:20.594Z,38.80
2018-07-11T14:47:53.786Z,37.94
2018-07-11T14:50:21.232Z,38.45
2018-07-11T14:52:48.730Z,40.27
2018-07-11T14:55:16.153Z,38.42
2018-07-11T14:57:43.578Z,40.44
2018-07-11T15:00:11.328Z,39.75
2018-07-11T15:02:38.790Z,40.58
2018-07-11T15:05:06.271Z,41.45
2018-07-11T15:07:33.638Z,42.29
2018-07-11T15:10:01.006Z,43.38
2018-07-11T15:12:28.427Z,43.86
2018-07-11T15:14:56.829Z,44.02
2018-07-11T15:17:24.266Z,45.20
2018-07-11T15:19:51.817Z,45.94
2018-07-11T15:22:19.702Z,46.60
2018-07-11T15:24:47.935Z,46.86
2018-07-11T15:27:15.474Z,46.68
2018-07-11T15:29:42.850Z,47.54
2018-07-11T15:32:10.361Z,47.96
2018-07-11T15:34:38.163Z,48.17
2018-07-11T15:37:05.670Z,48.74
2018-07-11T15:39:33.988Z,49.30
2018-07-11T15:42:02.586Z,50.00
2018-07-11T15:44:29.971Z,49.97
2018-07-11T15:46:57.355Z,50.53
2018-07-11T15:49:24.891Z,50.02
2018-07-11T15:51:52.362Z,50.68
2018-07-11T15:54:20.044Z,51.57
2018-07-11T15:56:47.343Z,53.40
2018-07-11T15:59:18.458Z,52.38
2018-07-11T16:01:51.837Z,52.60
2018-07-11T16:04:24.526Z,52.60
2018-07-11T16:06:51.916Z,53.19
2018-07-11T16:09:19.679Z,53.59
2018-07-11T16:11:47.066Z,53.19
2018-07-11T16:14:14.433Z,52.52
2018-07-11T16:16:41.872Z,52.61
2018-07-11T16:19:09.473Z,53.27
2018-07-11T16:21:36.830Z,52.06
2018-07-11T16:24:04.334Z,50.45
2018-07-11T16:26:31.745Z,50.09
2018-07-11T16:28:59.154Z,49.79
2018-07-11T16:31:26.617Z,49.39
2018-07-11T16:33:54.180Z,47.74
2018-07-11T16:36:21.567Z,48.00
2018-07-11T16:38:49.151Z,47.03
2018-07-11T16:41:17.317Z,47.24
2018-07-11T16:43:44.753Z,48.21
2018-07-11T16:46:12.775Z,47.94
2018-07-11T16:48:40.307Z,47.08
2018-07-11T16:51:07.761Z,45.79
2018-07-11T16:53:36.413Z,46.64
2018-07-11T16:56:04.312Z,46.67
2018-07-11T16:58:37.834Z,46.60
2018-07-11T17:01:05.482Z,47.27
2018-07-11T17:03:34.532Z,47.59
2018-07-11T17:06:05.294Z,48.24
2018-07-11T17:08:35.036Z,47.13
2018-07-11T17:11:14.915Z,47.73
2018-07-11T17:13:46.123Z,48.53
2018-07-11T17:16:13.503Z,49.20
2018-07-11T17:18:47.746Z,49.82
2018-07-11T17:21:28.602Z,49.75
2018-07-11T17:24:02.554Z,48.88
2018-07-11T17:26:30.001Z,49.11
2018-07-11T17:28:59.336Z,49.90
2018-07-11T17:31:27.003Z,50.76
2018-07-11T17:33:54.409Z,50.94
2018-07-11T17:36:21.799Z,51.04
2018-07-11T17:38:49.216Z,50.86
2018-07-11T17:41:17.082Z,50.70
2018-07-11T17:43:49.624Z,51.76
2018-07-11T17:46:20.143Z,49.90
2018-07-11T17:48:58.716Z,50.55
2018-07-11T17:51:40.366Z,48.89
2018-07-11T17:54:08.513Z,49.10
2018-07-11T17:56:47.482Z,49.16
2018-07-11T17:59:15.345Z,49.18
2018-07-11T18:01:48.367Z,49.83
2018-07-11T18:05:55.378Z,50.27
2018-07-11T18:08:28.348Z,50.64
2018-07-11T18:10:57.290Z,51.34
2018-07-11T18:13:26.485Z,52.13
2018-07-11T18:17:09.749Z,51.80
2018-07-11T18:20:55.425Z,52.14
2018-07-11T18:23:30.978Z,52.47
2018-07-11T18:26:06.844Z,52.92
2018-07-11T18:28:41.141Z,53.34
2018-07-11T18:31:19.691Z,53.96
2018-07-11T18:34:23.855Z,54.36
2018-07-11T18:37:24.514Z,55.25
2018-07-11T18:40:01.201Z,56.25
2018-07-11T18:42:41.546Z,56.35
2018-07-11T18:47:25.874Z,56.40
2018-07-11T18:50:12.703Z,57.39
2018-07-11T18:53:21.329Z,57.28
2018-07-11T18:56:04.067Z,57.56
2018-07-11T18:59:09.351Z,58.67
2018-07-11T19:01:50.036Z,58.41
2018-07-11T19:04:29.012Z,58.81
2018-07-11T19:07:09.242Z,59.02
2018-07-11T19:09:51.415Z,59.51
2018-07-11T19:12:27.301Z,60.02
2018-07-11T19:18:05.760Z,60.62
2018-07-11T19:20:42.722Z,61.07
2018-07-11T19:23:18.540Z,62.20
2018-07-11T19:26:00.346Z,62.45
2018-07-11T19:28:40.264Z,63.46
2018-07-11T19:33:22.610Z,63.26
2018-07-11T19:36:01.731Z,64.29
2018-07-11T19:38:40.900Z,64.55
2018-07-11T19:41:15.327Z,65.15
2018-07-11T19:44:21.581Z,64.91
2018-07-11T19:48:08.016Z,65.02
2018-07-11T19:50:46.969Z,64.82
2018-07-11T19:53:55.465Z,65.09
2018-07-11T19:56:36.278Z,64.63
2018-07-11T19:59:04.645Z,64.72
2018-07-11T20:01:32.663Z,65.02
2018-07-11T20:04:00.194Z,65.92
2018-07-11T20:06:27.842Z,65.84
2018-07-11T20:08:55.433Z,65.67
2018-07-11T20:11:24.262Z,65.93
2018-07-11T20:13:52.900Z,66.46
2018-07-11T20:16:21.373Z,66.25
2018-07-11T20:18:49.126Z,66.54
2018-07-11T20:21:17.226Z,67.16
2018-07-11T20:23:45.343Z,67.10
2018-07-11T20:26:13.231Z,67.06
2018-07-11T20:28:41.942Z,67.88
2018-07-11T20:31:09.589Z,67.72
2018-07-11T20:33:37.862Z,68.03
2018-07-11T20:36:07.600Z,68.32
2018-07-11T20:38:35.860Z,68.44
2018-07-11T20:41:03.308Z,68.82
2018-07-11T20:43:31.918Z,69.00
2018-07-11T20:46:00.064Z,69.78
2018-07-11T20:48:28.206Z,70.20
2018-07-11T20:50:55.766Z,70.76
2018-07-11T20:53:23.055Z,70.60
2018-07-11T20:55:50.326Z,71.22
2018-07-11T20:58:28.975Z,71.57
2018-07-11T21:03:13.457Z,71.75
2018-07-11T21:06:29.048Z,71.37
2018-07-11T21:11:09.003Z,71.34
2018-07-11T21:13:47.494Z,71.73
2018-07-11T21:17:34.801Z,72.37
2018-07-11T21:20:02.063Z,72.91
2018-07-11T21:22:29.290Z,72.84
2018-07-11T21:24:56.542Z,72.49
2018-07-11T21:27:23.794Z,72.39
2018-07-11T21:29:51.062Z,72.84
2018-07-11T21:32:18.291Z,72.45
2018-07-11T21:34:45.566Z,72.73
2018-07-11T21:37:12.809Z,72.14
2018-07-11T21:39:40.091Z,72.22
2018-07-11T21:42:07.367Z,72.45
2018-07-11T21:44:34.621Z,72.14
2018-07-11T21:47:01.871Z,72.08
2018-07-11T21:49:29.136Z,72.15
2018-07-11T21:51:56.419Z,71.97
2018-07-11T21:54:23.694Z,71.79
2018-07-11T21:56:50.907Z,72.50
2018-07-11T21:59:18.144Z,72.33
2018-07-11T22:01:45.415Z,73.31
2018-07-11T22:04:12.685Z,73.02
2018-07-11T22:06:39.947Z,73.23
2018-07-11T22:09:07.270Z,73.38
2018-07-11T22:11:34.567Z,73.80
2018-07-11T22:14:01.922Z,73.72
2018-07-11T22:16:29.192Z,73.92
2018-07-11T22:18:56.432Z,74.37
2018-07-11T22:21:22.699Z,74.33
2018-07-11T22:23:48.951Z,74.28
2018-07-11T22:26:15.220Z,74.69
2018-07-11T22:28:41.461Z,74.50
2018-07-11T22:31:07.933Z,74.72
2018-07-11T22:33:34.187Z,75.28
2018-07-11T22:36:00.451Z,75.34
2018-07-11T22:38:26.707Z,75.67
2018-07-11T22:40:52.935Z,75.43
2018-07-11T22:43:19.208Z,75.23
2018-07-11T22:45:45.444Z,75.49
2018-07-11T22:48:11.703Z,75.35
2018-07-11T22:50:37.960Z,75.94
2018-07-11T22:53:04.219Z,76.15
2018-07-11T22:55:30.456Z,75.77
2018-07-11T22:57:56.718Z,76.16
2018-07-11T23:00:22.991Z,75.91
2018-07-11T23:02:49.243Z,76.37
2018-07-11T23:05:15.507Z,76.91
2018-07-11T23:07:41.755Z,77.54
2018-07-11T23:10:08.067Z,77.24
2018-07-11T23:12:34.311Z,77.40
2018-07-11T23:15:00.588Z,77.49
2018-07-11T23:17:26.815Z,77.07
2018-07-11T23:19:53.146Z,77.07
2018-07-11T23:22:19.399Z,77.30
2018-07-11T23:24:45.640Z,77.15
2018-07-11T23:27:11.886Z,77.76
2018-07-11T23:29:38.139Z,77.64
2018-07-11T23:32:04.376Z,78.09
2018-07-11T23:34:30.646Z,79.02
2018-07-11T23:36:56.890Z,79.16
2018-07-11T23:39:23.163Z,79.07
2018-07-11T23:41:49.482Z,79.20
2018-07-11T23:44:15.764Z,79.16
2018-07-11T23:46:41.994Z,79.86
2018-07-11T23:49:08.276Z,80.17
2018-07-11T23:51:34.489Z,80.25
2018-07-11T23:54:00.745Z,79.98
2018-07-11T23:56:26.982Z,80.63
2018-07-11T23:58:53.241Z,80.25
